sensor_id;sensor_type;location;lat;lon;timestamp;P1;durP1;ratioP1;P2;durP2;ratioP2
18048;SDS011;9149;47.002;8.604;2024-01-25T00:00:32;1.95;;;0.90;;
18048;SDS011;9149;47.002;8.604;2024-01-25T00:03:00;1.30;;;0.98;;
18048;SDS011;9149;47.002;8.604;2024-01-25T00:05:28;1.60;;;1.00;;
18048;SDS011;9149;47.002;8.604;2024-01-25T00:07:56;2.92;;;1.02;;
18048;SDS011;9149;47.002;8.604;2024-01-25T00:10:23;1.20;;;1.10;;
18048;SDS011;9149;47.002;8.604;2024-01-25T00:12:51;2.25;;;1.20;;
18048;SDS011;9149;47.002;8.604;2024-01-25T00:15:19;3.65;;;1.30;;
18048;SDS011;9149;47.002;8.604;2024-01-25T00:17:48;1.67;;;1.20;;
18048;SDS011;9149;47.002;8.604;2024-01-25T00:20:16;1.10;;;1.00;;
18048;SDS011;9149;47.002;8.604;2024-01-25T00:22:44;1.42;;;1.33;;
18048;SDS011;9149;47.002;8.604;2024-01-25T00:25:12;1.73;;;1.40;;
18048;SDS011;9149;47.002;8.604;2024-01-25T00:27:40;1.83;;;1.55;;
18048;SDS011;9149;47.002;8.604;2024-01-25T00:30:08;1.50;;;1.40;;
18048;SDS011;9149;47.002;8.604;2024-01-25T00:32:35;3.33;;;1.50;;
18048;SDS011;9149;47.002;8.604;2024-01-25T00:35:05;1.70;;;1.52;;
18048;SDS011;9149;47.002;8.604;2024-01-25T00:37:33;2.22;;;1.70;;
18048;SDS011;9149;47.002;8.604;2024-01-25T00:40:01;2.50;;;1.98;;
18048;SDS011;9149;47.002;8.604;2024-01-25T00:42:29;2.63;;;1.95;;
18048;SDS011;9149;47.002;8.604;2024-01-25T00:44:58;4.15;;;2.00;;
18048;SDS011;9149;47.002;8.604;2024-01-25T00:47:26;2.97;;;2.20;;
18048;SDS011;9149;47.002;8.604;2024-01-25T00:49:54;3.03;;;2.13;;
18048;SDS011;9149;47.002;8.604;2024-01-25T00:52:23;2.90;;;2.30;;
18048;SDS011;9149;47.002;8.604;2024-01-25T00:54:51;2.67;;;2.10;;
18048;SDS011;9149;47.002;8.604;2024-01-25T00:57:19;3.63;;;2.55;;
18048;SDS011;9149;47.002;8.604;2024-01-25T00:59:47;3.75;;;2.47;;
18048;SDS011;9149;47.002;8.604;2024-01-25T01:02:16;3.60;;;2.60;;
18048;SDS011;9149;47.002;8.604;2024-01-25T01:04:44;5.47;;;2.13;;
18048;SDS011;9149;47.002;8.604;2024-01-25T01:07:14;3.45;;;2.50;;
18048;SDS011;9149;47.002;8.604;2024-01-25T01:09:43;3.58;;;2.20;;
18048;SDS011;9149;47.002;8.604;2024-01-25T01:12:11;2.35;;;1.77;;
18048;SDS011;9149;47.002;8.604;2024-01-25T01:14:40;1.77;;;1.52;;
18048;SDS011;9149;47.002;8.604;2024-01-25T01:17:08;2.42;;;1.88;;
18048;SDS011;9149;47.002;8.604;2024-01-25T01:19:35;2.17;;;1.60;;
18048;SDS011;9149;47.002;8.604;2024-01-25T01:22:03;1.90;;;1.70;;
18048;SDS011;9149;47.002;8.604;2024-01-25T01:24:31;2.47;;;1.70;;
18048;SDS011;9149;47.002;8.604;2024-01-25T01:27:00;2.05;;;1.63;;
18048;SDS011;9149;47.002;8.604;2024-01-25T01:29:28;1.70;;;1.50;;
18048;SDS011;9149;47.002;8.604;2024-01-25T01:31:55;1.88;;;1.45;;
18048;SDS011;9149;47.002;8.604;2024-01-25T01:34:23;1.77;;;1.42;;
18048;SDS011;9149;47.002;8.604;2024-01-25T01:36:51;2.10;;;1.58;;
18048;SDS011;9149;47.002;8.604;2024-01-25T01:39:19;1.95;;;1.50;;
18048;SDS011;9149;47.002;8.604;2024-01-25T01:41:47;2.05;;;1.40;;
18048;SDS011;9149;47.002;8.604;2024-01-25T01:44:16;1.20;;;1.00;;
18048;SDS011;9149;47.002;8.604;2024-01-25T01:46:44;1.85;;;1.60;;
18048;SDS011;9149;47.002;8.604;2024-01-25T01:49:13;2.05;;;1.65;;
18048;SDS011;9149;47.002;8.604;2024-01-25T01:51:41;1.38;;;1.10;;
18048;SDS011;9149;47.002;8.604;2024-01-25T01:54:10;1.38;;;1.10;;
18048;SDS011;9149;47.002;8.604;2024-01-25T01:56:38;1.98;;;1.10;;
18048;SDS011;9149;47.002;8.604;2024-01-25T01:59:08;1.30;;;1.20;;
18048;SDS011;9149;47.002;8.604;2024-01-25T02:01:37;1.30;;;1.13;;
18048;SDS011;9149;47.002;8.604;2024-01-25T02:04:05;1.52;;;1.40;;
18048;SDS011;9149;47.002;8.604;2024-01-25T02:06:33;1.30;;;1.20;;
18048;SDS011;9149;47.002;8.604;2024-01-25T02:09:01;2.95;;;1.10;;
18048;SDS011;9149;47.002;8.604;2024-01-25T02:11:29;1.10;;;1.00;;
18048;SDS011;9149;47.002;8.604;2024-01-25T02:13:57;0.93;;;0.88;;
18048;SDS011;9149;47.002;8.604;2024-01-25T02:16:25;2.20;;;1.52;;
18048;SDS011;9149;47.002;8.604;2024-01-25T02:18:54;3.78;;;2.30;;
18048;SDS011;9149;47.002;8.604;2024-01-25T02:21:24;2.92;;;2.20;;
18048;SDS011;9149;47.002;8.604;2024-01-25T02:23:53;2.50;;;2.15;;
18048;SDS011;9149;47.002;8.604;2024-01-25T02:26:21;2.10;;;1.90;;
18048;SDS011;9149;47.002;8.604;2024-01-25T02:28:49;2.25;;;1.80;;
18048;SDS011;9149;47.002;8.604;2024-01-25T02:31:20;1.15;;;0.98;;
18048;SDS011;9149;47.002;8.604;2024-01-25T02:33:48;6.30;;;1.15;;
18048;SDS011;9149;47.002;8.604;2024-01-25T02:36:17;1.00;;;0.90;;
18048;SDS011;9149;47.002;8.604;2024-01-25T02:38:45;1.23;;;1.02;;
18048;SDS011;9149;47.002;8.604;2024-01-25T02:41:14;1.15;;;0.98;;
18048;SDS011;9149;47.002;8.604;2024-01-25T02:43:41;1.05;;;0.95;;
18048;SDS011;9149;47.002;8.604;2024-01-25T02:46:09;1.30;;;1.20;;
18048;SDS011;9149;47.002;8.604;2024-01-25T02:48:37;1.65;;;1.00;;
18048;SDS011;9149;47.002;8.604;2024-01-25T02:51:05;1.65;;;1.50;;
18048;SDS011;9149;47.002;8.604;2024-01-25T02:53:32;2.65;;;2.10;;
18048;SDS011;9149;47.002;8.604;2024-01-25T02:56:00;3.03;;;2.10;;
18048;SDS011;9149;47.002;8.604;2024-01-25T02:58:29;2.67;;;2.10;;
18048;SDS011;9149;47.002;8.604;2024-01-25T03:00:57;2.28;;;1.83;;
18048;SDS011;9149;47.002;8.604;2024-01-25T03:03:24;2.47;;;1.92;;
18048;SDS011;9149;47.002;8.604;2024-01-25T03:05:53;2.22;;;1.60;;
18048;SDS011;9149;47.002;8.604;2024-01-25T03:08:21;2.10;;;1.52;;
18048;SDS011;9149;47.002;8.604;2024-01-25T03:10:48;2.40;;;1.80;;
18048;SDS011;9149;47.002;8.604;2024-01-25T03:13:16;2.00;;;1.55;;
18048;SDS011;9149;47.002;8.604;2024-01-25T03:15:45;2.85;;;2.00;;
18048;SDS011;9149;47.002;8.604;2024-01-25T03:18:13;4.00;;;1.77;;
18048;SDS011;9149;47.002;8.604;2024-01-25T03:20:41;2.22;;;1.80;;
18048;SDS011;9149;47.002;8.604;2024-01-25T03:23:09;3.08;;;2.20;;
18048;SDS011;9149;47.002;8.604;2024-01-25T03:25:36;3.85;;;2.47;;
18048;SDS011;9149;47.002;8.604;2024-01-25T03:28:04;3.92;;;2.42;;
18048;SDS011;9149;47.002;8.604;2024-01-25T03:30:33;3.55;;;2.08;;
18048;SDS011;9149;47.002;8.604;2024-01-25T03:33:02;2.90;;;1.80;;
18048;SDS011;9149;47.002;8.604;2024-01-25T03:35:30;1.67;;;1.38;;
18048;SDS011;9149;47.002;8.604;2024-01-25T03:37:58;1.92;;;1.50;;
18048;SDS011;9149;47.002;8.604;2024-01-25T03:40:26;2.00;;;1.42;;
18048;SDS011;9149;47.002;8.604;2024-01-25T03:42:53;2.92;;;1.40;;
18048;SDS011;9149;47.002;8.604;2024-01-25T03:45:41;2.38;;;1.55;;
18048;SDS011;9149;47.002;8.604;2024-01-25T03:48:10;2.42;;;1.92;;
18048;SDS011;9149;47.002;8.604;2024-01-25T03:50:38;3.88;;;2.05;;
18048;SDS011;9149;47.002;8.604;2024-01-25T03:53:06;4.22;;;2.85;;
18048;SDS011;9149;47.002;8.604;2024-01-25T03:55:33;6.65;;;4.05;;
18048;SDS011;9149;47.002;8.604;2024-01-25T03:58:01;7.30;;;4.57;;
18048;SDS011;9149;47.002;8.604;2024-01-25T04:00:29;9.55;;;5.22;;
18048;SDS011;9149;47.002;8.604;2024-01-25T04:02:57;8.70;;;4.68;;
18048;SDS011;9149;47.002;8.604;2024-01-25T04:05:26;9.70;;;4.53;;
18048;SDS011;9149;47.002;8.604;2024-01-25T04:07:54;7.38;;;4.18;;
18048;SDS011;9149;47.002;8.604;2024-01-25T04:10:21;6.80;;;4.22;;
18048;SDS011;9149;47.002;8.604;2024-01-25T04:12:49;6.97;;;4.22;;
18048;SDS011;9149;47.002;8.604;2024-01-25T04:15:21;6.32;;;3.50;;
18048;SDS011;9149;47.002;8.604;2024-01-25T04:17:49;4.43;;;3.00;;
18048;SDS011;9149;47.002;8.604;2024-01-25T04:20:17;5.88;;;3.53;;
18048;SDS011;9149;47.002;8.604;2024-01-25T04:22:46;5.32;;;3.53;;
18048;SDS011;9149;47.002;8.604;2024-01-25T04:25:15;6.57;;;3.75;;
18048;SDS011;9149;47.002;8.604;2024-01-25T04:27:43;11.32;;;3.38;;
18048;SDS011;9149;47.002;8.604;2024-01-25T04:30:11;4.90;;;2.92;;
18048;SDS011;9149;47.002;8.604;2024-01-25T04:32:38;3.70;;;2.60;;
18048;SDS011;9149;47.002;8.604;2024-01-25T04:35:07;4.65;;;3.13;;
18048;SDS011;9149;47.002;8.604;2024-01-25T04:37:35;6.32;;;4.18;;
18048;SDS011;9149;47.002;8.604;2024-01-25T04:40:05;6.88;;;4.18;;
18048;SDS011;9149;47.002;8.604;2024-01-25T04:42:33;3.35;;;2.38;;
18048;SDS011;9149;47.002;8.604;2024-01-25T04:45:00;3.13;;;2.20;;
18048;SDS011;9149;47.002;8.604;2024-01-25T04:47:29;5.15;;;3.25;;
18048;SDS011;9149;47.002;8.604;2024-01-25T04:49:57;5.93;;;3.22;;
18048;SDS011;9149;47.002;8.604;2024-01-25T04:52:25;6.68;;;3.40;;
18048;SDS011;9149;47.002;8.604;2024-01-25T04:54:53;5.45;;;3.50;;
18048;SDS011;9149;47.002;8.604;2024-01-25T04:57:22;8.13;;;4.80;;
18048;SDS011;9149;47.002;8.604;2024-01-25T04:59:50;6.15;;;4.10;;
18048;SDS011;9149;47.002;8.604;2024-01-25T05:02:18;8.57;;;4.88;;
18048;SDS011;9149;47.002;8.604;2024-01-25T05:04:46;7.88;;;4.80;;
18048;SDS011;9149;47.002;8.604;2024-01-25T05:07:14;5.47;;;3.42;;
18048;SDS011;9149;47.002;8.604;2024-01-25T05:09:42;7.05;;;4.82;;
18048;SDS011;9149;47.002;8.604;2024-01-25T05:12:10;10.52;;;6.82;;
18048;SDS011;9149;47.002;8.604;2024-01-25T05:14:40;5.43;;;2.70;;
18048;SDS011;9149;47.002;8.604;2024-01-25T05:17:08;3.17;;;2.20;;
18048;SDS011;9149;47.002;8.604;2024-01-25T05:19:36;3.50;;;2.20;;
18048;SDS011;9149;47.002;8.604;2024-01-25T05:22:04;3.67;;;2.50;;
18048;SDS011;9149;47.002;8.604;2024-01-25T05:24:33;3.97;;;2.45;;
18048;SDS011;9149;47.002;8.604;2024-01-25T05:27:01;6.28;;;2.85;;
18048;SDS011;9149;47.002;8.604;2024-01-25T05:29:29;3.10;;;2.40;;
18048;SDS011;9149;47.002;8.604;2024-01-25T05:31:58;3.65;;;2.53;;
18048;SDS011;9149;47.002;8.604;2024-01-25T05:34:26;3.88;;;2.55;;
18048;SDS011;9149;47.002;8.604;2024-01-25T05:36:54;4.05;;;2.60;;
18048;SDS011;9149;47.002;8.604;2024-01-25T05:39:22;4.15;;;2.38;;
18048;SDS011;9149;47.002;8.604;2024-01-25T05:41:50;3.63;;;2.45;;
18048;SDS011;9149;47.002;8.604;2024-01-25T05:44:17;5.57;;;2.90;;
18048;SDS011;9149;47.002;8.604;2024-01-25T05:46:45;11.77;;;3.42;;
18048;SDS011;9149;47.002;8.604;2024-01-25T05:49:14;5.78;;;3.30;;
18048;SDS011;9149;47.002;8.604;2024-01-25T05:51:42;4.80;;;3.17;;
18048;SDS011;9149;47.002;8.604;2024-01-25T05:54:10;4.20;;;2.80;;
18048;SDS011;9149;47.002;8.604;2024-01-25T05:56:38;4.85;;;3.30;;
18048;SDS011;9149;47.002;8.604;2024-01-25T05:59:06;5.40;;;3.47;;
18048;SDS011;9149;47.002;8.604;2024-01-25T06:01:34;5.32;;;3.70;;
18048;SDS011;9149;47.002;8.604;2024-01-25T06:04:02;4.65;;;2.67;;
18048;SDS011;9149;47.002;8.604;2024-01-25T06:06:31;4.80;;;3.20;;
18048;SDS011;9149;47.002;8.604;2024-01-25T06:08:59;5.70;;;2.67;;
18048;SDS011;9149;47.002;8.604;2024-01-25T06:11:38;3.95;;;2.80;;
18048;SDS011;9149;47.002;8.604;2024-01-25T06:14:06;4.55;;;2.97;;
18048;SDS011;9149;47.002;8.604;2024-01-25T06:16:34;4.15;;;2.65;;
18048;SDS011;9149;47.002;8.604;2024-01-25T06:19:02;3.70;;;2.42;;
18048;SDS011;9149;47.002;8.604;2024-01-25T06:21:32;3.67;;;2.60;;
18048;SDS011;9149;47.002;8.604;2024-01-25T06:24:02;3.95;;;2.90;;
18048;SDS011;9149;47.002;8.604;2024-01-25T06:26:30;6.05;;;3.15;;
18048;SDS011;9149;47.002;8.604;2024-01-25T06:28:56;5.22;;;2.80;;
18048;SDS011;9149;47.002;8.604;2024-01-25T06:31:24;5.78;;;2.78;;
18048;SDS011;9149;47.002;8.604;2024-01-25T06:33:52;3.38;;;1.95;;
18048;SDS011;9149;47.002;8.604;2024-01-25T06:36:20;2.35;;;1.50;;
18048;SDS011;9149;47.002;8.604;2024-01-25T06:38:49;2.40;;;1.95;;
18048;SDS011;9149;47.002;8.604;2024-01-25T06:41:17;1.88;;;1.55;;
18048;SDS011;9149;47.002;8.604;2024-01-25T06:43:45;2.88;;;1.48;;
18048;SDS011;9149;47.002;8.604;2024-01-25T06:46:13;7.47;;;2.05;;
18048;SDS011;9149;47.002;8.604;2024-01-25T06:48:41;4.03;;;1.90;;
18048;SDS011;9149;47.002;8.604;2024-01-25T06:51:09;3.15;;;1.70;;
18048;SDS011;9149;47.002;8.604;2024-01-25T06:53:37;2.60;;;1.90;;
18048;SDS011;9149;47.002;8.604;2024-01-25T06:56:06;5.38;;;2.30;;
18048;SDS011;9149;47.002;8.604;2024-01-25T06:58:34;7.20;;;2.50;;
18048;SDS011;9149;47.002;8.604;2024-01-25T07:01:02;3.75;;;2.03;;
18048;SDS011;9149;47.002;8.604;2024-01-25T07:03:31;6.75;;;3.03;;
18048;SDS011;9149;47.002;8.604;2024-01-25T07:05:59;17.90;;;4.30;;
18048;SDS011;9149;47.002;8.604;2024-01-25T07:08:27;11.25;;;3.67;;
18048;SDS011;9149;47.002;8.604;2024-01-25T07:10:55;6.53;;;3.85;;
18048;SDS011;9149;47.002;8.604;2024-01-25T07:13:24;5.70;;;3.20;;
18048;SDS011;9149;47.002;8.604;2024-01-25T07:15:52;6.70;;;2.60;;
18048;SDS011;9149;47.002;8.604;2024-01-25T07:18:20;3.25;;;2.08;;
18048;SDS011;9149;47.002;8.604;2024-01-25T07:20:49;7.18;;;2.05;;
18048;SDS011;9149;47.002;8.604;2024-01-25T07:23:17;10.25;;;2.90;;
18048;SDS011;9149;47.002;8.604;2024-01-25T07:25:45;8.65;;;3.05;;
18048;SDS011;9149;47.002;8.604;2024-01-25T07:28:13;5.63;;;2.58;;
18048;SDS011;9149;47.002;8.604;2024-01-25T07:30:42;5.47;;;2.45;;
18048;SDS011;9149;47.002;8.604;2024-01-25T07:33:10;5.60;;;2.03;;
18048;SDS011;9149;47.002;8.604;2024-01-25T07:35:39;5.05;;;2.75;;
18048;SDS011;9149;47.002;8.604;2024-01-25T07:38:12;3.63;;;2.55;;
18048;SDS011;9149;47.002;8.604;2024-01-25T07:40:39;3.85;;;2.10;;
18048;SDS011;9149;47.002;8.604;2024-01-25T07:43:07;6.03;;;2.50;;
18048;SDS011;9149;47.002;8.604;2024-01-25T07:45:35;3.50;;;2.47;;
18048;SDS011;9149;47.002;8.604;2024-01-25T07:48:04;3.33;;;1.80;;
18048;SDS011;9149;47.002;8.604;2024-01-25T07:50:40;4.80;;;1.90;;
18048;SDS011;9149;47.002;8.604;2024-01-25T07:53:09;4.25;;;2.00;;
18048;SDS011;9149;47.002;8.604;2024-01-25T07:55:38;4.55;;;2.40;;
18048;SDS011;9149;47.002;8.604;2024-01-25T07:58:06;3.85;;;2.03;;
18048;SDS011;9149;47.002;8.604;2024-01-25T08:00:34;9.15;;;2.25;;
18048;SDS011;9149;47.002;8.604;2024-01-25T08:03:02;5.60;;;2.20;;
18048;SDS011;9149;47.002;8.604;2024-01-25T08:05:31;5.40;;;2.78;;
18048;SDS011;9149;47.002;8.604;2024-01-25T08:08:10;5.53;;;3.13;;
18048;SDS011;9149;47.002;8.604;2024-01-25T08:10:38;7.38;;;2.92;;
18048;SDS011;9149;47.002;8.604;2024-01-25T08:13:06;3.63;;;1.90;;
18048;SDS011;9149;47.002;8.604;2024-01-25T08:15:34;5.93;;;2.22;;
18048;SDS011;9149;47.002;8.604;2024-01-25T08:18:02;4.22;;;1.60;;
18048;SDS011;9149;47.002;8.604;2024-01-25T08:20:32;4.63;;;1.77;;
18048;SDS011;9149;47.002;8.604;2024-01-25T08:22:59;3.05;;;1.80;;
18048;SDS011;9149;47.002;8.604;2024-01-25T08:25:27;4.53;;;1.70;;
18048;SDS011;9149;47.002;8.604;2024-01-25T08:27:55;2.33;;;1.60;;
18048;SDS011;9149;47.002;8.604;2024-01-25T08:30:23;2.47;;;1.58;;
18048;SDS011;9149;47.002;8.604;2024-01-25T08:32:51;3.75;;;2.00;;
18048;SDS011;9149;47.002;8.604;2024-01-25T08:35:19;3.17;;;1.60;;
18048;SDS011;9149;47.002;8.604;2024-01-25T08:37:48;7.75;;;1.42;;
18048;SDS011;9149;47.002;8.604;2024-01-25T08:40:16;1.27;;;1.17;;
18048;SDS011;9149;47.002;8.604;2024-01-25T08:42:44;1.13;;;1.02;;
18048;SDS011;9149;47.002;8.604;2024-01-25T08:45:12;3.47;;;1.40;;
18048;SDS011;9149;47.002;8.604;2024-01-25T08:47:44;6.22;;;1.75;;
18048;SDS011;9149;47.002;8.604;2024-01-25T08:50:12;2.53;;;1.77;;
18048;SDS011;9149;47.002;8.604;2024-01-25T08:52:40;2.90;;;2.03;;
18048;SDS011;9149;47.002;8.604;2024-01-25T08:55:09;3.17;;;2.03;;
18048;SDS011;9149;47.002;8.604;2024-01-25T08:57:37;2.85;;;1.75;;
18048;SDS011;9149;47.002;8.604;2024-01-25T09:00:06;0.70;;;0.60;;
18048;SDS011;9149;47.002;8.604;2024-01-25T09:02:37;0.80;;;0.80;;
18048;SDS011;9149;47.002;8.604;2024-01-25T09:05:05;2.22;;;1.20;;
18048;SDS011;9149;47.002;8.604;2024-01-25T09:07:34;1.35;;;0.80;;
18048;SDS011;9149;47.002;8.604;2024-01-25T09:10:02;2.20;;;0.80;;
18048;SDS011;9149;47.002;8.604;2024-01-25T09:12:33;2.22;;;1.20;;
18048;SDS011;9149;47.002;8.604;2024-01-25T09:15:01;1.63;;;1.20;;
18048;SDS011;9149;47.002;8.604;2024-01-25T09:17:30;2.38;;;1.50;;
18048;SDS011;9149;47.002;8.604;2024-01-25T09:19:57;5.88;;;2.30;;
18048;SDS011;9149;47.002;8.604;2024-01-25T09:22:27;6.78;;;2.13;;
18048;SDS011;9149;47.002;8.604;2024-01-25T09:24:55;5.18;;;2.20;;
18048;SDS011;9149;47.002;8.604;2024-01-25T09:27:23;2.72;;;1.90;;
18048;SDS011;9149;47.002;8.604;2024-01-25T09:29:52;8.00;;;2.35;;
18048;SDS011;9149;47.002;8.604;2024-01-25T09:32:20;4.30;;;2.08;;
18048;SDS011;9149;47.002;8.604;2024-01-25T09:34:48;7.88;;;2.60;;
18048;SDS011;9149;47.002;8.604;2024-01-25T09:37:16;6.80;;;2.33;;
18048;SDS011;9149;47.002;8.604;2024-01-25T09:39:46;5.25;;;2.10;;
18048;SDS011;9149;47.002;8.604;2024-01-25T09:42:14;3.33;;;2.10;;
18048;SDS011;9149;47.002;8.604;2024-01-25T09:44:42;6.25;;;2.20;;
18048;SDS011;9149;47.002;8.604;2024-01-25T09:47:11;2.47;;;1.95;;
18048;SDS011;9149;47.002;8.604;2024-01-25T09:49:40;10.45;;;2.38;;
18048;SDS011;9149;47.002;8.604;2024-01-25T09:52:09;6.18;;;2.65;;
18048;SDS011;9149;47.002;8.604;2024-01-25T09:54:38;8.43;;;2.33;;
18048;SDS011;9149;47.002;8.604;2024-01-25T09:57:08;9.15;;;2.50;;
18048;SDS011;9149;47.002;8.604;2024-01-25T09:59:41;6.53;;;2.25;;
18048;SDS011;9149;47.002;8.604;2024-01-25T10:02:09;5.15;;;2.08;;
18048;SDS011;9149;47.002;8.604;2024-01-25T10:04:39;7.38;;;2.45;;
18048;SDS011;9149;47.002;8.604;2024-01-25T10:07:06;5.43;;;2.30;;
18048;SDS011;9149;47.002;8.604;2024-01-25T10:09:38;4.30;;;1.92;;
18048;SDS011;9149;47.002;8.604;2024-01-25T10:12:06;1.27;;;1.00;;
18048;SDS011;9149;47.002;8.604;2024-01-25T10:14:44;1.00;;;0.88;;
18048;SDS011;9149;47.002;8.604;2024-01-25T10:17:12;1.00;;;0.70;;
18048;SDS011;9149;47.002;8.604;2024-01-25T10:19:43;1.15;;;1.00;;
18048;SDS011;9149;47.002;8.604;2024-01-25T10:22:13;1.23;;;0.70;;
18048;SDS011;9149;47.002;8.604;2024-01-25T10:24:42;0.70;;;0.70;;
18048;SDS011;9149;47.002;8.604;2024-01-25T10:27:12;1.88;;;0.98;;
18048;SDS011;9149;47.002;8.604;2024-01-25T10:29:40;0.70;;;0.70;;
18048;SDS011;9149;47.002;8.604;2024-01-25T10:32:08;0.75;;;0.75;;
18048;SDS011;9149;47.002;8.604;2024-01-25T10:34:36;2.72;;;0.77;;
18048;SDS011;9149;47.002;8.604;2024-01-25T10:37:06;4.05;;;0.80;;
18048;SDS011;9149;47.002;8.604;2024-01-25T10:39:34;0.68;;;0.60;;
18048;SDS011;9149;47.002;8.604;2024-01-25T10:42:02;2.13;;;0.73;;
18048;SDS011;9149;47.002;8.604;2024-01-25T10:44:30;1.10;;;0.93;;
18048;SDS011;9149;47.002;8.604;2024-01-25T10:46:58;1.85;;;0.90;;
18048;SDS011;9149;47.002;8.604;2024-01-25T10:49:26;3.45;;;0.70;;
18048;SDS011;9149;47.002;8.604;2024-01-25T10:51:54;0.82;;;0.82;;
18048;SDS011;9149;47.002;8.604;2024-01-25T10:54:24;3.72;;;0.85;;
18048;SDS011;9149;47.002;8.604;2024-01-25T10:56:52;0.60;;;0.60;;
18048;SDS011;9149;47.002;8.604;2024-01-25T10:59:20;0.70;;;0.70;;
18048;SDS011;9149;47.002;8.604;2024-01-25T11:01:53;1.50;;;0.80;;
18048;SDS011;9149;47.002;8.604;2024-01-25T11:04:21;2.47;;;0.73;;
18048;SDS011;9149;47.002;8.604;2024-01-25T11:06:49;0.70;;;0.70;;
18048;SDS011;9149;47.002;8.604;2024-01-25T11:09:18;0.70;;;0.70;;
18048;SDS011;9149;47.002;8.604;2024-01-25T11:11:48;3.78;;;1.00;;
18048;SDS011;9149;47.002;8.604;2024-01-25T11:14:16;0.60;;;0.60;;
18048;SDS011;9149;47.002;8.604;2024-01-25T11:16:44;1.00;;;0.90;;
18048;SDS011;9149;47.002;8.604;2024-01-25T11:19:16;0.70;;;0.60;;
18048;SDS011;9149;47.002;8.604;2024-01-25T11:21:45;0.80;;;0.80;;
18048;SDS011;9149;47.002;8.604;2024-01-25T11:24:13;0.70;;;0.70;;
18048;SDS011;9149;47.002;8.604;2024-01-25T11:26:42;0.63;;;0.63;;
18048;SDS011;9149;47.002;8.604;2024-01-25T11:29:11;1.50;;;0.77;;
18048;SDS011;9149;47.002;8.604;2024-01-25T11:31:42;0.75;;;0.60;;
18048;SDS011;9149;47.002;8.604;2024-01-25T11:34:11;0.52;;;0.52;;
18048;SDS011;9149;47.002;8.604;2024-01-25T11:36:39;0.98;;;0.70;;
18048;SDS011;9149;47.002;8.604;2024-01-25T11:39:08;3.53;;;0.57;;
18048;SDS011;9149;47.002;8.604;2024-01-25T11:41:36;0.50;;;0.50;;
18048;SDS011;9149;47.002;8.604;2024-01-25T11:44:04;0.70;;;0.60;;
18048;SDS011;9149;47.002;8.604;2024-01-25T11:46:33;0.60;;;0.60;;
18048;SDS011;9149;47.002;8.604;2024-01-25T11:49:04;1.42;;;0.60;;
18048;SDS011;9149;47.002;8.604;2024-01-25T11:51:33;1.55;;;0.75;;
18048;SDS011;9149;47.002;8.604;2024-01-25T11:54:01;1.20;;;0.60;;
18048;SDS011;9149;47.002;8.604;2024-01-25T11:56:32;1.30;;;0.73;;
18048;SDS011;9149;47.002;8.604;2024-01-25T11:59:01;1.27;;;0.90;;
18048;SDS011;9149;47.002;8.604;2024-01-25T12:01:30;1.02;;;0.73;;
18048;SDS011;9149;47.002;8.604;2024-01-25T12:04:00;0.75;;;0.60;;
18048;SDS011;9149;47.002;8.604;2024-01-25T12:06:28;0.90;;;0.65;;
18048;SDS011;9149;47.002;8.604;2024-01-25T12:09:05;0.70;;;0.60;;
18048;SDS011;9149;47.002;8.604;2024-01-25T12:11:33;1.10;;;0.90;;
18048;SDS011;9149;47.002;8.604;2024-01-25T12:14:00;1.38;;;0.70;;
18048;SDS011;9149;47.002;8.604;2024-01-25T12:16:28;1.30;;;0.82;;
18048;SDS011;9149;47.002;8.604;2024-01-25T12:18:59;3.38;;;0.70;;
18048;SDS011;9149;47.002;8.604;2024-01-25T12:21:27;4.85;;;0.90;;
18048;SDS011;9149;47.002;8.604;2024-01-25T12:23:55;0.60;;;0.60;;
18048;SDS011;9149;47.002;8.604;2024-01-25T12:26:25;0.60;;;0.50;;
18048;SDS011;9149;47.002;8.604;2024-01-25T12:28:53;1.08;;;0.52;;
18048;SDS011;9149;47.002;8.604;2024-01-25T12:31:21;0.60;;;0.50;;
18048;SDS011;9149;47.002;8.604;2024-01-25T12:33:48;0.50;;;0.50;;
18048;SDS011;9149;47.002;8.604;2024-01-25T12:36:18;4.53;;;0.80;;
18048;SDS011;9149;47.002;8.604;2024-01-25T12:38:46;1.45;;;0.73;;
18048;SDS011;9149;47.002;8.604;2024-01-25T12:41:15;0.40;;;0.40;;
18048;SDS011;9149;47.002;8.604;2024-01-25T12:43:43;2.47;;;0.60;;
18048;SDS011;9149;47.002;8.604;2024-01-25T12:46:11;0.40;;;0.40;;
18048;SDS011;9149;47.002;8.604;2024-01-25T12:48:52;1.17;;;0.60;;
18048;SDS011;9149;47.002;8.604;2024-01-25T12:51:24;3.13;;;0.70;;
18048;SDS011;9149;47.002;8.604;2024-01-25T12:53:52;1.50;;;0.50;;
18048;SDS011;9149;47.002;8.604;2024-01-25T12:56:20;0.88;;;0.50;;
18048;SDS011;9149;47.002;8.604;2024-01-25T12:58:48;4.13;;;0.70;;
18048;SDS011;9149;47.002;8.604;2024-01-25T13:01:17;2.00;;;0.60;;
18048;SDS011;9149;47.002;8.604;2024-01-25T13:03:45;1.55;;;0.52;;
18048;SDS011;9149;47.002;8.604;2024-01-25T13:06:15;5.15;;;0.50;;
18048;SDS011;9149;47.002;8.604;2024-01-25T13:08:45;2.25;;;0.60;;
18048;SDS011;9149;47.002;8.604;2024-01-25T13:11:12;7.10;;;0.95;;
18048;SDS011;9149;47.002;8.604;2024-01-25T13:13:40;2.60;;;0.50;;
18048;SDS011;9149;47.002;8.604;2024-01-25T13:16:08;2.10;;;0.40;;
18048;SDS011;9149;47.002;8.604;2024-01-25T13:18:36;1.58;;;0.50;;
18048;SDS011;9149;47.002;8.604;2024-01-25T13:21:04;0.43;;;0.43;;
18048;SDS011;9149;47.002;8.604;2024-01-25T13:23:31;0.52;;;0.40;;
18048;SDS011;9149;47.002;8.604;2024-01-25T13:26:01;1.27;;;0.50;;
18048;SDS011;9149;47.002;8.604;2024-01-25T13:28:28;9.55;;;0.80;;
18048;SDS011;9149;47.002;8.604;2024-01-25T13:30:56;1.17;;;0.30;;
18048;SDS011;9149;47.002;8.604;2024-01-25T13:33:25;1.20;;;0.50;;
18048;SDS011;9149;47.002;8.604;2024-01-25T13:35:53;4.75;;;0.63;;
18048;SDS011;9149;47.002;8.604;2024-01-25T13:38:21;3.65;;;0.50;;
18048;SDS011;9149;47.002;8.604;2024-01-25T13:40:49;1.85;;;0.57;;
18048;SDS011;9149;47.002;8.604;2024-01-25T13:43:19;2.80;;;0.82;;
18048;SDS011;9149;47.002;8.604;2024-01-25T13:48:33;0.50;;;0.40;;
18048;SDS011;9149;47.002;8.604;2024-01-25T13:51:01;0.40;;;0.40;;
18048;SDS011;9149;47.002;8.604;2024-01-25T13:53:28;2.13;;;0.70;;
18048;SDS011;9149;47.002;8.604;2024-01-25T13:55:56;1.33;;;0.43;;
18048;SDS011;9149;47.002;8.604;2024-01-25T13:58:25;0.93;;;0.38;;
18048;SDS011;9149;47.002;8.604;2024-01-25T14:00:53;2.13;;;0.40;;
18048;SDS011;9149;47.002;8.604;2024-01-25T14:03:21;0.93;;;0.70;;
18048;SDS011;9149;47.002;8.604;2024-01-25T14:05:49;0.50;;;0.50;;
18048;SDS011;9149;47.002;8.604;2024-01-25T14:08:17;0.75;;;0.60;;
18048;SDS011;9149;47.002;8.604;2024-01-25T14:10:44;1.88;;;0.60;;
18048;SDS011;9149;47.002;8.604;2024-01-25T14:13:12;0.63;;;0.60;;
18048;SDS011;9149;47.002;8.604;2024-01-25T14:15:41;1.48;;;0.63;;
18048;SDS011;9149;47.002;8.604;2024-01-25T14:18:09;0.70;;;0.60;;
18048;SDS011;9149;47.002;8.604;2024-01-25T14:20:37;0.60;;;0.50;;
18048;SDS011;9149;47.002;8.604;2024-01-25T14:23:05;0.93;;;0.55;;
18048;SDS011;9149;47.002;8.604;2024-01-25T14:25:33;5.15;;;0.75;;
18048;SDS011;9149;47.002;8.604;2024-01-25T14:28:00;2.00;;;0.80;;
18048;SDS011;9149;47.002;8.604;2024-01-25T14:30:28;2.05;;;0.60;;
18048;SDS011;9149;47.002;8.604;2024-01-25T14:32:57;0.60;;;0.60;;
18048;SDS011;9149;47.002;8.604;2024-01-25T14:35:25;1.95;;;1.10;;
18048;SDS011;9149;47.002;8.604;2024-01-25T14:37:55;4.10;;;1.33;;
18048;SDS011;9149;47.002;8.604;2024-01-25T14:40:24;1.58;;;1.25;;
18048;SDS011;9149;47.002;8.604;2024-01-25T14:43:11;2.58;;;1.00;;
18048;SDS011;9149;47.002;8.604;2024-01-25T14:45:39;3.22;;;1.88;;
18048;SDS011;9149;47.002;8.604;2024-01-25T14:48:09;5.75;;;2.70;;
18048;SDS011;9149;47.002;8.604;2024-01-25T14:50:36;2.15;;;1.23;;
18048;SDS011;9149;47.002;8.604;2024-01-25T14:53:04;1.17;;;0.90;;
18048;SDS011;9149;47.002;8.604;2024-01-25T14:55:32;2.58;;;0.90;;
18048;SDS011;9149;47.002;8.604;2024-01-25T14:58:00;2.25;;;0.93;;
18048;SDS011;9149;47.002;8.604;2024-01-25T15:00:27;1.00;;;0.88;;
18048;SDS011;9149;47.002;8.604;2024-01-25T15:02:55;2.50;;;0.90;;
18048;SDS011;9149;47.002;8.604;2024-01-25T15:05:43;1.05;;;0.75;;
18048;SDS011;9149;47.002;8.604;2024-01-25T15:08:11;1.88;;;1.10;;
18048;SDS011;9149;47.002;8.604;2024-01-25T15:10:39;3.17;;;1.25;;